Time;durP1;ratioP1;P1;durP2;ratioP2;P2;SDS_P1;SDS_P2;PMS_P1;PMS_P2;Temp;Humidity;BMP_temperature;BMP_pressure;BME280_temperature;BME280_humidity;BME280_pressure;Samples;Min_cycle;Max_cycle;Signal;HPM_P1;HPM_P2
2022/08/28 00:00:53;;;;;;;9.48;3.65;;;;;;;18.11;79.25;101813.34;5272230;28;20024;-67
2022/08/28 00:03:24;;;;;;;7.63;3.17;;;;;;;18.17;79.04;101812.69;5271197;28;20024;-66
2022/08/28 00:05:56;;;;;;;10.13;3.28;;;;;;;18.06;79.95;101812.94;5272727;28;20070;-67
2022/08/28 00:08:29;;;;;;;6.03;3.47;;;;;;;18.07;80.07;101813.78;5272915;28;20070;-66
2022/08/28 00:11:00;;;;;;;7.97;3.40;;;;;;;18.01;80.28;101817.91;5271734;28;20047;-67
2022/08/28 00:13:31;;;;;;;9.88;3.58;;;;;;;17.95;80.84;101811.38;5271929;28;20020;-66
2022/08/28 00:16:03;;;;;;;9.43;3.60;;;;;;;17.93;80.70;101810.72;5271693;28;20044;-68
2022/08/28 00:18:34;;;;;;;8.18;3.58;;;;;;;17.93;80.80;101816.00;5273128;28;20016;-67
2022/08/28 00:21:06;;;;;;;8.15;3.80;;;;;;;17.87;81.43;101813.13;5270981;28;20029;-67
2022/08/28 00:23:37;;;;;;;7.93;3.97;;;;;;;17.87;82.19;101821.09;5271211;28;20032;-67
2022/08/28 00:26:10;;;;;;;8.25;3.67;;;;;;;17.79;82.65;101819.22;5269963;28;20027;-67
2022/08/28 00:28:41;;;;;;;9.25;3.95;;;;;;;17.81;82.85;101817.25;5271840;28;20028;-67
2022/08/28 00:31:12;;;;;;;15.03;4.33;;;;;;;17.82;82.63;101813.59;5269177;28;20036;-67
2022/08/28 00:33:44;;;;;;;9.40;3.72;;;;;;;17.65;83.17;101823.22;5273569;28;20032;-67
2022/08/28 00:36:15;;;;;;;9.77;4.18;;;;;;;17.55;84.34;101817.16;5253543;28;20503;-66
2022/08/28 00:38:46;;;;;;;12.50;4.40;;;;;;;17.54;84.31;101822.59;5268814;28;20036;-67
2022/08/28 00:41:17;;;;;;;10.18;4.15;;;;;;;17.51;84.25;101824.59;5270677;28;20086;-67
2022/08/28 00:43:49;;;;;;;8.05;4.20;;;;;;;17.41;85.73;101823.00;5271808;28;20023;-68
2022/08/28 00:46:22;;;;;;;10.82;3.75;;;;;;;17.46;86.68;101812.75;5271459;28;20038;-67
2022/08/28 00:48:53;;;;;;;7.15;3.38;;;;;;;17.39;86.83;101819.69;5272544;28;20028;-67
2022/08/28 00:54:18;;;;;;;9.45;4.07;;;;;;;17.16;88.59;101828.06;5269673;28;20603;-67
2022/08/28 00:56:50;;;;;;;;;;;;;;;17.93;82.26;101818.66;5270189;28;20119;-65
2022/08/28 00:59:24;;;;;;;6.90;3.47;;;;;;;17.13;89.12;101820.41;5272011;28;19912;-67
2022/08/28 01:01:57;;;;;;;9.13;3.63;;;;;;;17.02;91.16;101839.97;5272134;28;20689;-68
2022/08/28 01:04:31;;;;;;;7.20;3.90;;;;;;;17.07;90.78;101836.88;5270663;28;20020;-67
2022/08/28 01:07:06;;;;;;;12.20;4.25;;;;;;;16.99;92.64;101834.97;5274414;28;20020;-67
2022/08/28 01:09:42;;;;;;;9.73;3.80;;;;;;;17.06;92.72;101842.31;5272092;28;20051;-67
2022/08/28 01:12:18;;;;;;;9.38;3.83;;;;;;;16.91;94.32;101841.97;5268055;28;20502;-67
2022/08/28 01:14:53;;;;;;;9.32;3.78;;;;;;;16.76;97.06;101844.28;5273998;28;20482;-67
2022/08/28 01:17:30;;;;;;;7.20;3.97;;;;;;;16.82;96.59;101834.91;5273713;28;20016;-67
2022/08/28 01:20:08;;;;;;;8.98;4.00;;;;;;;16.86;96.41;101839.78;5269323;28;20028;-67
2022/08/28 01:22:52;;;;;;;7.80;4.18;;;;;;;16.95;96.35;101843.34;5272238;28;20387;-67
2022/08/28 01:25:28;;;;;;;12.05;4.15;;;;;;;16.76;98.60;101839.81;5270684;28;20230;-66
2022/08/28 01:28:02;;;;;;;8.25;4.07;;;;;;;16.70;98.25;101831.59;5271619;28;20025;-67
2022/08/28 01:30:34;;;;;;;9.43;4.10;;;;;;;16.62;99.66;101834.13;5270134;28;20134;-67
2022/08/28 01:33:06;;;;;;;9.30;4.32;;;;;;;16.66;100.00;101832.84;5272418;28;20037;-67
2022/08/28 01:35:41;;;;;;;8.43;4.28;;;;;;;16.72;100.00;101838.41;5270163;28;20021;-67
2022/08/28 01:38:13;;;;;;;10.63;4.22;;;;;;;16.63;100.00;101847.22;5270788;28;20036;-67
2022/08/28 01:40:48;;;;;;;7.50;4.10;;;;;;;16.65;100.00;101842.63;5270904;28;20031;-66
2022/08/28 01:43:22;;;;;;;9.52;4.18;;;;;;;16.62;100.00;101840.25;5270685;28;20529;-67
2022/08/28 01:45:58;;;;;;;10.15;4.10;;;;;;;16.63;100.00;101841.94;5248672;28;20063;-67
2022/08/28 01:48:34;;;;;;;10.35;4.60;;;;;;;16.51;100.00;101853.66;5271861;28;20107;-67
2022/08/28 01:51:06;;;;;;;12.75;4.20;;;;;;;16.52;100.00;101850.06;5271971;28;20115;-67
2022/08/28 01:53:37;;;;;;;11.13;3.95;;;;;;;16.51;100.00;101853.66;5272526;28;20106;-67
2022/08/28 01:58:56;;;;;;;7.90;4.25;;;;;;;16.39;100.00;101849.53;5246386;28;20076;-70
2022/08/28 02:01:28;;;;;;;9.57;4.30;;;;;;;16.34;100.00;101841.19;5266961;28;20024;-70
2022/08/28 02:03:59;;;;;;;9.43;4.07;;;;;;;16.39;100.00;101852.16;5265250;28;20033;-70
2022/08/28 02:06:31;;;;;;;8.02;3.78;;;;;;;16.33;100.00;101852.72;5270123;28;20104;-70
2022/08/28 02:09:04;;;;;;;9.65;4.18;;;;;;;16.35;100.00;101851.63;5262126;28;20037;-70
2022/08/28 02:11:37;;;;;;;8.43;3.83;;;;;;;16.27;100.00;101854.16;5270209;28;20078;-70
2022/08/28 02:14:09;;;;;;;10.03;4.93;;;;;;;16.24;100.00;101852.63;5270018;28;20123;-70
2022/08/28 02:16:40;;;;;;;10.23;4.70;;;;;;;16.13;100.00;101855.41;5265658;28;20294;-70
2022/08/28 02:19:12;;;;;;;8.35;4.03;;;;;;;16.08;100.00;101856.84;5271222;28;20787;-70
2022/08/28 02:21:43;;;;;;;12.10;4.28;;;;;;;16.07;100.00;101853.34;5262572;28;20028;-68
2022/08/28 02:24:15;;;;;;;11.38;5.28;;;;;;;16.07;100.00;101858.66;5268749;28;20065;-69
2022/08/28 02:26:47;;;;;;;9.77;4.40;;;;;;;16.07;100.00;101869.22;5265813;28;20036;-69
2022/08/28 02:29:18;;;;;;;10.57;4.93;;;;;;;15.98;100.00;101860.31;5269207;28;20020;-69
2022/08/28 02:31:49;;;;;;;9.85;4.70;;;;;;;15.87;100.00;101856.97;5248325;28;20032;-70
2022/08/28 02:34:22;;;;;;;11.15;4.53;;;;;;;15.84;100.00;101863.41;5262288;28;20021;-69
2022/08/28 02:36:55;;;;;;;12.05;5.13;;;;;;;15.78;100.00;101864.78;5265154;28;20032;-70
2022/08/28 02:39:26;;;;;;;8.63;4.18;;;;;;;15.73;100.00;101860.91;5268739;28;20028;-70
2022/08/28 02:41:57;;;;;;;8.73;4.00;;;;;;;15.61;100.00;101851.38;5269261;28;20485;-70
2022/08/28 02:44:29;;;;;;;12.73;4.18;;;;;;;15.60;100.00;101860.28;5273857;28;20012;-70
2022/08/28 02:47:01;;;;;;;10.20;4.78;;;;;;;15.64;100.00;101864.31;5246284;28;20702;-70
2022/08/28 02:49:32;;;;;;;14.82;5.22;;;;;;;15.53;100.00;101868.78;5264454;28;20032;-70
2022/08/28 02:52:05;;;;;;;8.95;4.53;;;;;;;15.55;100.00;101866.81;5247885;28;20487;-70
2022/08/28 02:54:38;;;;;;;;;;;;;;;16.27;100.00;101870.84;5265459;28;20067;-70
2022/08/28 02:57:09;;;;;;;9.48;4.50;;;;;;;15.60;100.00;101865.56;5262443;28;19999;-70
2022/08/28 02:59:42;;;;;;;9.13;4.32;;;;;;;15.48;100.00;101868.34;5269535;28;20120;-70
2022/08/28 03:02:14;;;;;;;12.93;4.85;;;;;;;15.36;100.00;101860.69;5267652;28;20021;-70
2022/08/28 03:04:45;;;;;;;8.40;4.32;;;;;;;15.36;100.00;101863.31;5261938;28;20516;-70
2022/08/28 03:07:18;;;;;;;11.70;4.97;;;;;;;15.29;100.00;101871.78;5260849;28;20494;-70
2022/08/28 03:09:49;;;;;;;11.82;4.50;;;;;;;15.33;100.00;101867.06;5267918;28;20108;-70
2022/08/28 03:12:22;;;;;;;13.88;5.13;;;;;;;15.22;100.00;101868.00;5265066;28;20465;-70
2022/08/28 03:14:54;;;;;;;8.38;4.15;;;;;;;15.13;100.00;101870.63;5264057;28;20102;-70
2022/08/28 03:17:25;;;;;;;11.23;4.53;;;;;;;15.12;100.00;101863.69;5267950;28;20060;-70
2022/08/28 03:19:56;;;;;;;10.35;4.65;;;;;;;15.11;100.00;101869.91;5269253;28;20138;-70
2022/08/28 03:25:18;;;;;;;10.43;4.72;;;;;;;14.98;100.00;101872.81;5263983;28;20037;-70
2022/08/28 03:27:49;;;;;;;9.10;4.55;;;;;;;14.97;100.00;101871.16;5265454;28;20025;-70
2022/08/28 03:30:22;;;;;;;10.20;4.32;;;;;;;14.93;100.00;101877.66;5264677;28;20017;-70
2022/08/28 03:32:53;;;;;;;9.13;4.80;;;;;;;15.07;100.00;101882.53;5268088;28;20036;-70
2022/08/28 03:35:24;;;;;;;10.65;4.55;;;;;;;14.96;100.00;101874.72;5265123;28;20025;-70
2022/08/28 03:37:56;;;;;;;11.05;5.10;;;;;;;14.93;100.00;101880.31;5266082;28;20044;-70
2022/08/28 03:40:27;;;;;;;6.20;3.72;;;;;;;14.95;100.00;101884.44;5267021;28;20554;-70
2022/08/28 03:42:59;;;;;;;9.52;4.30;;;;;;;14.93;100.00;101889.03;5271670;28;20020;-70
2022/08/28 03:45:30;;;;;;;8.07;4.38;;;;;;;14.86;100.00;101884.44;5267573;28;20032;-70
2022/08/28 03:48:03;;;;;;;12.25;4.72;;;;;;;14.81;100.00;101885.66;5264325;28;20037;-70
2022/08/28 03:50:34;;;;;;;8.82;5.28;;;;;;;14.85;100.00;101883.59;5262859;28;20059;-70
2022/08/28 03:53:06;;;;;;;7.57;4.72;;;;;;;14.83;100.00;101893.44;5269451;28;20032;-70
2022/08/28 03:55:40;;;;;;;9.30;4.53;;;;;;;14.86;100.00;101887.06;5243502;28;20390;-70
2022/08/28 03:58:12;;;;;;;7.00;4.32;;;;;;;14.74;100.00;101881.06;5265541;28;20503;-70
2022/08/28 04:00:44;;;;;;;7.88;4.13;;;;;;;14.79;100.00;101892.03;5263879;28;20033;-70
2022/08/28 04:03:16;;;;;;;9.95;4.95;;;;;;;14.63;100.00;101896.97;5267590;28;20029;-70
2022/08/28 04:05:48;;;;;;;10.40;5.13;;;;;;;14.68;100.00;101895.59;5261083;28;20108;-70
2022/08/28 04:08:21;;;;;;;7.40;4.72;;;;;;;14.70;100.00;101898.09;5252354;28;20035;-70
2022/08/28 04:10:53;;;;;;;9.48;4.35;;;;;;;14.55;100.00;101894.97;5245614;28;20063;-70
2022/08/28 04:13:25;;;;;;;8.75;4.65;;;;;;;14.57;100.00;101891.22;5265600;28;20028;-70
2022/08/28 04:16:03;;;;;;;8.85;3.95;;;;;;;14.67;100.00;101901.00;5249073;28;20028;-70
2022/08/28 04:18:40;;;;;;;8.65;4.45;;;;;;;14.47;100.00;101892.97;5267639;28;20031;-70
2022/08/28 04:21:17;;;;;;;9.55;4.63;;;;;;;14.44;100.00;101884.47;5265709;28;20394;-70
2022/08/28 04:23:49;;;;;;;14.82;4.68;;;;;;;14.41;100.00;101893.47;5263434;28;20021;-70
2022/08/28 04:26:25;;;;;;;8.57;4.80;;;;;;;14.43;100.00;101893.31;5263389;28;20132;-70
2022/08/28 04:28:56;;;;;;;11.25;4.75;;;;;;;14.31;100.00;101897.84;5266538;28;20099;-69
2022/08/28 04:31:27;;;;;;;10.35;5.10;;;;;;;14.33;100.00;101902.03;5263889;28;20123;-69
2022/08/28 04:34:01;;;;;;;9.30;4.57;;;;;;;14.18;100.00;101898.03;5265985;28;20070;-69
2022/08/28 04:36:32;;;;;;;10.38;4.88;;;;;;;14.24;100.00;101913.31;5268291;28;20412;-69
2022/08/28 04:39:07;;;;;;;8.98;4.90;;;;;;;14.27;100.00;101912.22;5265645;28;20024;-69
2022/08/28 04:41:39;;;;;;;7.55;4.53;;;;;;;14.22;100.00;101906.53;5265747;28;20386;-70
2022/08/28 04:44:10;;;;;;;10.48;4.57;;;;;;;14.23;100.00;101909.00;5266486;28;20032;-70
2022/08/28 04:46:41;;;;;;;11.25;5.05;;;;;;;14.18;100.00;101907.75;5265472;28;20048;-70
2022/08/28 04:49:14;;;;;;;8.25;4.38;;;;;;;14.14;100.00;101912.44;5267754;28;20471;-70
2022/08/28 04:51:45;;;;;;;9.15;5.18;;;;;;;14.11;100.00;101902.97;5269162;28;20056;-69
2022/08/28 04:54:20;;;;;;;8.43;4.53;;;;;;;14.23;100.00;101919.56;5263445;28;20052;-69
2022/08/28 04:56:51;;;;;;;8.52;4.47;;;;;;;14.14;100.00;101922.13;5262900;28;20076;-69
2022/08/28 04:59:22;;;;;;;10.32;5.03;;;;;;;14.12;100.00;101912.53;5242609;28;20498;-69
2022/08/28 05:01:54;;;;;;;12.38;4.55;;;;;;;14.08;100.00;101915.56;5246306;28;20038;-70
2022/08/28 05:04:25;;;;;;;7.18;4.30;;;;;;;13.97;100.00;101916.44;5246730;28;20035;-70
2022/08/28 05:06:57;;;;;;;12.02;5.20;;;;;;;14.07;100.00;101921.81;5266936;28;20020;-70
2022/08/28 05:09:30;;;;;;;7.72;4.50;;;;;;;14.03;100.00;101928.28;5260786;28;20040;-70
2022/08/28 05:12:03;;;;;;;8.65;4.45;;;;;;;14.01;100.00;101933.66;5244334;28;20488;-70
2022/08/28 05:14:35;;;;;;;9.80;4.63;;;;;;;13.92;100.00;101939.69;5267321;28;20033;-70
2022/08/28 05:17:08;;;;;;;9.82;4.82;;;;;;;13.99;100.00;101935.59;5267616;28;20081;-70
2022/08/28 05:19:40;;;;;;;9.65;4.53;;;;;;;14.05;100.00;101939.53;5258913;28;20031;-69
2022/08/28 05:22:11;;;;;;;8.68;4.90;;;;;;;14.01;100.00;101936.31;5265607;28;20399;-70
2022/08/28 05:24:43;;;;;;;9.82;4.85;;;;;;;14.00;100.00;101928.53;5263778;28;20024;-69
2022/08/28 05:27:14;;;;;;;6.32;3.78;;;;;;;14.05;100.00;101943.03;5265833;28;20025;-69
2022/08/28 05:29:48;;;;;;;7.70;4.30;;;;;;;14.11;100.00;101944.28;5264482;28;20024;-69
2022/08/28 05:32:20;;;;;;;10.13;4.57;;;;;;;13.99;100.00;101946.16;5244657;28;20459;-69
2022/08/28 05:34:53;;;;;;;9.18;4.40;;;;;;;13.99;100.00;101945.31;5261281;28;20059;-70
2022/08/28 05:37:25;;;;;;;11.18;4.90;;;;;;;14.04;100.00;101953.66;5257311;28;20489;-69
2022/08/28 05:39:56;;;;;;;9.48;4.55;;;;;;;13.98;100.00;101944.47;5245632;28;20025;-70
2022/08/28 05:42:27;;;;;;;9.52;4.65;;;;;;;14.05;100.00;101950.94;5262320;28;20020;-70
2022/08/28 05:44:58;;;;;;;10.23;4.88;;;;;;;14.05;100.00;101952.69;5264274;28;20024;-69
2022/08/28 05:47:31;;;;;;;10.65;4.35;;;;;;;14.03;100.00;101949.38;5263245;28;20031;-69
2022/08/28 05:50:03;;;;;;;9.10;4.68;;;;;;;14.11;100.00;101944.28;5259659;28;20021;-70
2022/08/28 05:52:34;;;;;;;10.65;4.97;;;;;;;14.18;100.00;101957.81;5262574;28;20040;-69
2022/08/28 05:55:07;;;;;;;9.70;4.25;;;;;;;14.22;100.00;101946.06;5266718;28;20059;-70
2022/08/28 05:57:39;;;;;;;8.18;4.38;;;;;;;14.41;100.00;101950.63;5261304;28;20982;-70
2022/08/28 06:00:12;;;;;;;12.63;4.90;;;;;;;14.35;100.00;101960.72;5264739;28;20104;-69
2022/08/28 06:02:43;;;;;;;15.30;4.90;;;;;;;14.43;100.00;101953.97;5246109;28;20379;-70
2022/08/28 06:05:15;;;;;;;12.13;4.55;;;;;;;14.40;100.00;101943.69;5263324;28;20843;-70
2022/08/28 06:07:46;;;;;;;11.63;4.72;;;;;;;14.54;100.00;101964.47;5258313;28;20359;-70
2022/08/28 06:10:17;;;;;;;10.52;4.55;;;;;;;14.60;100.00;101966.63;5267602;28;20032;-70
2022/08/28 06:12:48;;;;;;;10.95;4.80;;;;;;;14.63;100.00;101968.16;5264662;28;20291;-70
2022/08/28 06:15:20;;;;;;;10.55;4.18;;;;;;;14.68;100.00;101958.06;5265109;28;20021;-70
2022/08/28 06:17:52;;;;;;;8.43;4.32;;;;;;;14.80;100.00;101968.41;5261088;28;20089;-70
2022/08/28 06:20:24;;;;;;;12.10;4.47;;;;;;;14.91;100.00;101964.84;5262618;28;20020;-71
2022/08/28 06:22:55;;;;;;;10.68;4.47;;;;;;;14.96;100.00;101961.81;5265026;28;20029;-68
2022/08/28 06:25:27;;;;;;;11.98;4.40;;;;;;;15.04;100.00;101970.75;5265919;28;20486;-70
2022/08/28 06:27:58;;;;;;;11.23;3.95;;;;;;;15.18;100.00;101966.91;5261318;28;20078;-71
2022/08/28 06:30:29;;;;;;;8.43;4.18;;;;;;;15.28;100.00;101969.59;5261989;28;20020;-70
2022/08/28 06:33:02;;;;;;;11.18;4.28;;;;;;;15.35;100.00;101957.56;5258121;28;20029;-71
2022/08/28 06:35:33;;;;;;;13.97;4.73;;;;;;;15.41;100.00;101958.81;5265220;28;20386;-71
2022/08/28 06:38:04;;;;;;;17.98;4.85;;;;;;;15.54;100.00;101973.44;5263630;28;20032;-70
2022/08/28 06:40:41;;;;;;;15.27;4.97;;;;;;;15.77;100.00;101974.09;5246265;28;20013;-70
2022/08/28 06:43:14;;;;;;;10.35;4.25;;;;;;;15.74;100.00;101978.81;5261911;28;20017;-71
2022/08/28 06:45:49;;;;;;;9.48;4.05;;;;;;;15.90;100.00;101975.63;5269129;28;20103;-71
2022/08/28 06:48:23;;;;;;;9.52;3.60;;;;;;;16.13;100.00;101987.59;5265231;28;20020;-71
2022/08/28 06:50:56;;;;;;;9.75;3.97;;;;;;;16.14;100.00;101980.50;5268811;28;20663;-71
2022/08/28 06:53:29;;;;;;;11.55;4.18;;;;;;;16.31;100.00;101979.81;5266427;28;20033;-71
2022/08/28 06:56:07;;;;;;;11.68;4.05;;;;;;;16.55;100.00;101992.59;5263825;28;20029;-71
2022/08/28 06:58:41;;;;;;;11.48;4.30;;;;;;;16.64;100.00;101989.13;5264627;28;20813;-71
2022/08/28 07:01:17;;;;;;;11.00;4.45;;;;;;;16.84;100.00;101994.41;5274726;28;20564;-71
2022/08/28 07:03:51;;;;;;;10.68;4.47;;;;;;;16.84;100.00;101986.47;5267524;28;20016;-71
2022/08/28 07:06:22;;;;;;;10.60;3.55;;;;;;;17.07;100.00;101986.94;5265886;28;20081;-71
2022/08/28 07:08:54;;;;;;;13.55;5.05;;;;;;;17.16;100.00;101984.28;5260133;28;20021;-70
2022/08/28 07:11:30;;;;;;;9.52;4.30;;;;;;;17.33;100.00;101989.78;5254422;28;20035;-70
2022/08/28 07:14:03;;;;;;;7.78;3.65;;;;;;;17.34;100.00;101986.16;5269566;28;20025;-71
2022/08/28 07:16:37;;;;;;;10.60;3.75;;;;;;;17.47;100.00;101990.13;5264231;28;20020;-71
2022/08/28 07:19:10;;;;;;;9.88;3.95;;;;;;;17.52;100.00;101973.78;5259550;28;20390;-71
2022/08/28 07:21:44;;;;;;;9.85;3.30;;;;;;;17.83;100.00;101990.22;5259096;28;20029;-71
2022/08/28 07:24:16;;;;;;;12.27;4.00;;;;;;;17.96;100.00;101987.22;5260414;28;20071;-71
2022/08/28 07:26:47;;;;;;;9.02;3.72;;;;;;;18.04;100.00;101983.81;5243716;28;20485;-71
2022/08/28 07:29:19;;;;;;;14.27;3.42;;;;;;;18.17;100.00;101987.75;5264034;28;20041;-71
2022/08/28 07:31:52;;;;;;;8.68;3.50;;;;;;;18.38;100.00;101989.25;5267030;28;20079;-71
2022/08/28 07:34:24;;;;;;;9.63;3.33;;;;;;;18.37;100.00;101995.53;5268336;28;20103;-71
2022/08/28 07:37:02;;;;;;;13.25;4.15;;;;;;;18.40;100.00;102000.53;5268379;28;20103;-71
2022/08/28 07:39:33;;;;;;;9.13;3.35;;;;;;;18.52;100.00;101999.31;5266812;28;20521;-69
2022/08/28 07:42:05;;;;;;;11.85;3.60;;;;;;;18.65;100.00;102004.22;5264703;28;20028;-69
2022/08/28 07:44:49;;;;;;;9.40;3.00;;;;;;;18.74;100.00;102007.81;5270470;28;20021;-69
2022/08/28 07:47:22;;;;;;;9.90;2.78;;;;;;;18.88;99.31;102009.91;5243548;28;20024;-69
2022/08/28 07:49:53;;;;;;;8.40;2.75;;;;;;;19.09;97.88;102012.16;5265751;28;20063;-70
2022/08/28 07:52:26;;;;;;;9.80;2.60;;;;;;;19.04;90.84;102012.63;5265765;28;20487;-70
2022/08/28 07:54:58;;;;;;;7.00;2.67;;;;;;;19.10;91.84;102001.41;5259746;28;20074;-70
2022/08/28 07:57:30;;;;;;;11.95;3.22;;;;;;;19.33;91.59;102008.81;5282357;22;20041;-67
2022/08/28 08:00:03;;;;;;;8.77;2.67;;;;;;;19.55;92.71;102018.88;5272315;28;20033;-67
2022/08/28 08:02:34;;;;;;;9.65;2.58;;;;;;;19.56;85.75;102014.41;5274343;28;20024;-67
2022/08/28 08:05:06;;;;;;;10.73;3.17;;;;;;;19.60;84.81;102015.72;5258339;28;20067;-67
2022/08/28 08:07:38;;;;;;;7.50;2.53;;;;;;;19.67;84.43;102017.63;5273320;28;20027;-66
2022/08/28 08:10:13;;;;;;;7.68;2.60;;;;;;;19.89;85.96;102010.88;5272704;28;20736;-67
2022/08/28 08:12:45;;;;;;;8.30;2.97;;;;;;;20.01;84.16;102018.53;5265541;28;20442;-67
2022/08/28 08:15:16;;;;;;;11.10;2.58;;;;;;;19.92;79.06;102021.16;5263651;28;20119;-67
2022/08/28 08:17:47;;;;;;;6.73;2.20;;;;;;;20.10;79.47;102018.38;5269264;28;20016;-67
2022/08/28 08:20:18;;;;;;;8.37;2.63;;;;;;;20.38;78.62;102018.91;5263837;28;20494;-67
2022/08/28 08:22:50;;;;;;;6.15;2.20;;;;;;;20.46;76.52;102018.09;5269995;28;20031;-67
2022/08/28 08:25:22;;;;;;;6.63;2.53;;;;;;;20.43;75.31;102018.41;5263154;28;20037;-67
2022/08/28 08:27:53;;;;;;;5.53;2.23;;;;;;;20.57;72.75;102025.78;5270807;28;20387;-67
2022/08/28 08:30:24;;;;;;;5.77;2.00;;;;;;;20.62;70.98;102017.28;5267662;28;20032;-67
2022/08/28 08:32:55;;;;;;;9.20;2.53;;;;;;;20.78;71.84;102027.91;5271666;28;20036;-67
2022/08/28 08:35:27;;;;;;;6.60;2.40;;;;;;;20.84;69.05;102031.75;5267590;28;20032;-67
2022/08/28 08:37:58;;;;;;;7.50;2.37;;;;;;;20.67;68.99;102035.41;5270664;28;20060;-67
2022/08/28 08:40:29;;;;;;;6.87;2.27;;;;;;;20.83;69.31;102035.38;5270292;28;20371;-67
2022/08/28 08:43:02;;;;;;;8.60;2.40;;;;;;;20.92;67.57;102037.06;5268736;28;20081;-67
2022/08/28 08:45:35;;;;;;;6.90;1.95;;;;;;;20.81;68.59;102034.72;5267501;28;20024;-67
2022/08/28 08:48:12;;;;;;;9.82;2.30;;;;;;;20.58;68.58;102023.94;5250076;28;20021;-67
2022/08/28 08:50:44;;;;;;;8.82;2.35;;;;;;;20.62;68.57;102023.44;5245786;28;20685;-67
2022/08/28 08:53:25;;;;;;;7.17;2.00;;;;;;;21.03;69.12;102028.69;5269455;28;20095;-67
2022/08/28 08:55:57;;;;;;;5.30;1.50;;;;;;;20.88;65.60;102022.41;5271844;28;20024;-67
2022/08/28 08:58:36;;;;;;;6.23;1.80;;;;;;;20.91;66.53;102024.75;5270250;28;20086;-67
2022/08/28 09:01:35;;;;;;;5.60;1.95;;;;;;;21.03;68.60;102022.53;5267587;28;20028;-67
2022/08/28 09:04:07;;;;;;;7.18;2.08;;;;;;;20.78;67.65;102019.91;5271444;28;20039;-67
2022/08/28 09:07:14;;;;;;;5.27;1.70;;;;;;;21.17;65.65;102013.00;5270977;28;20020;-67
2022/08/28 09:09:52;;;;;;;4.68;1.80;;;;;;;21.14;65.39;102020.34;5203419;28;20282;-67
2022/08/28 09:12:26;;;;;;;6.18;2.05;;;;;;;21.33;62.64;102026.31;5270202;28;20052;-67
2022/08/28 09:15:11;;;;;;;5.30;2.08;;;;;;;21.49;62.72;102023.59;5261755;28;20070;-67
2022/08/28 09:17:56;;;;;;;5.18;1.83;;;;;;;21.63;61.44;102022.03;5262467;28;20099;-67
2022/08/28 09:20:28;;;;;;;9.23;2.05;;;;;;;21.71;62.13;102019.31;5266277;28;20499;-67
2022/08/28 09:22:59;;;;;;;6.47;1.67;;;;;;;21.79;57.95;102021.94;5267666;28;20031;-67
2022/08/28 09:25:43;;;;;;;4.37;1.90;;;;;;;22.06;60.35;102025.94;5272451;28;20013;-67
2022/08/28 09:28:36;;;;;;;7.28;1.92;;;;;;;21.98;58.97;102026.00;5269171;28;20025;-67
2022/08/28 09:31:30;;;;;;;;;;;;;;;22.35;56.69;102029.78;5269559;28;20102;-67
2022/08/28 09:34:19;;;;;;;6.90;1.92;;;;;;;21.88;59.95;102029.88;5269516;28;20035;-67
2022/08/28 09:36:53;;;;;;;5.50;2.00;;;;;;;21.78;60.57;102022.09;5272086;28;20032;-67
2022/08/28 09:39:31;;;;;;;4.70;1.88;;;;;;;21.94;59.29;102013.19;5266662;28;20360;-67
2022/08/28 09:45:12;;;;;;;6.20;1.73;;;;;;;22.10;57.14;102024.56;5266431;28;20395;-67
2022/08/28 09:47:51;;;;;;;6.55;2.08;;;;;;;22.29;57.81;102030.47;5266343;28;20082;-67
2022/08/28 09:50:27;;;;;;;8.45;1.55;;;;;;;22.26;56.39;102023.66;5271228;28;20078;-67
2022/08/28 09:53:16;;;;;;;5.50;1.90;;;;;;;22.61;56.38;102026.69;5270107;28;20372;-67
2022/08/28 09:55:53;;;;;;;5.18;1.85;;;;;;;22.58;54.72;102030.56;5271899;28;20094;-67
2022/08/28 09:58:32;;;;;;;6.40;1.85;;;;;;;22.79;54.08;102021.03;5270600;28;20036;-67
2022/08/28 10:01:17;;;;;;;5.30;1.77;;;;;;;22.81;54.17;102011.81;5266228;28;20103;-67
2022/08/28 10:04:04;;;;;;;6.47;1.90;;;;;;;23.05;53.88;102021.44;5267105;28;20028;-67
2022/08/28 10:06:36;;;;;;;6.10;2.10;;;;;;;22.92;53.72;102029.28;5272362;28;20013;-67
2022/08/28 10:09:20;;;;;;;5.17;1.67;;;;;;;23.18;52.52;102033.34;5269658;28;20499;-67
2022/08/28 10:12:10;;;;;;;4.72;1.67;;;;;;;23.60;53.40;102031.81;5270844;28;20060;-67
2022/08/28 10:14:56;;;;;;;6.35;1.73;;;;;;;23.55;52.42;102025.19;5267393;28;20033;-67
2022/08/28 10:17:55;;;;;;;4.60;1.75;;;;;;;23.39;52.73;102019.22;5267489;28;20075;-67
2022/08/28 10:20:30;;;;;;;6.43;1.80;;;;;;;23.32;54.70;102029.84;5272416;28;20027;-67
2022/08/28 10:23:52;;;;;;;5.75;2.03;;;;;;;23.50;52.71;102022.25;5273604;28;20687;-67
2022/08/28 10:27:01;;;;;;;6.78;1.65;;;;;;;23.19;54.73;102022.47;5272430;28;20036;-67
2022/08/28 10:30:04;;;;;;;4.15;1.83;;;;;;;23.11;54.85;102021.72;5268331;28;20395;-67
2022/08/28 10:33:28;;;;;;;5.68;1.70;;;;;;;22.90;53.05;102028.59;5238423;28;20102;-68
2022/08/28 10:36:10;;;;;;;5.10;1.80;;;;;;;23.03;52.77;102019.97;5267826;28;20024;-67
2022/08/28 10:38:50;;;;;;;3.83;1.70;;;;;;;23.30;52.77;102016.66;5270109;28;20058;-67
2022/08/28 10:41:36;;;;;;;7.28;1.92;;;;;;;23.66;52.54;102018.56;5272949;28;20024;-67
2022/08/28 10:44:14;;;;;;;5.38;1.48;;;;;;;23.55;50.34;102013.66;5272412;28;20067;-67
2022/08/28 10:46:49;;;;;;;4.32;1.80;;;;;;;24.04;51.00;102019.19;5272610;28;20028;-67
2022/08/28 10:49:30;;;;;;;4.22;1.30;;;;;;;24.19;48.74;102013.75;5252994;28;20024;-67
2022/08/28 10:52:10;;;;;;;6.30;1.60;;;;;;;24.26;48.93;102017.34;5272751;28;20077;-67
2022/08/28 10:54:52;;;;;;;5.68;1.60;;;;;;;24.52;47.79;102011.41;5273370;28;20317;-67
2022/08/28 10:57:31;;;;;;;;;;;;;;;25.28;48.82;102020.59;5271148;28;20417;-67
2022/08/28 11:00:09;;;;;;;4.47;1.85;;;;;;;24.34;49.15;102020.91;5268671;28;19924;-68
2022/08/28 11:02:46;;;;;;;4.20;1.75;;;;;;;24.02;50.63;102021.22;5274899;28;20214;-68
2022/08/28 11:05:20;;;;;;;4.88;1.65;;;;;;;24.04;50.38;102024.53;5272571;28;20468;-67
2022/08/28 11:07:59;;;;;;;7.35;1.70;;;;;;;24.06;51.83;102012.81;5269727;28;20033;-67
2022/08/28 11:10:30;;;;;;;6.20;1.73;;;;;;;23.80;49.50;102032.94;5272632;28;20037;-67
2022/08/28 11:13:05;;;;;;;3.90;1.57;;;;;;;24.08;50.87;102026.84;5274935;28;20032;-67
2022/08/28 11:15:40;;;;;;;4.95;1.70;;;;;;;24.13;49.57;102024.41;5273380;28;20029;-67
2022/08/28 11:18:14;;;;;;;5.30;1.60;;;;;;;24.43;49.34;102025.13;5268441;28;20040;-67
2022/08/28 11:21:43;;;;;;;3.63;1.60;;;;;;;25.02;48.97;102011.34;5272166;28;20028;-67
2022/08/28 11:24:30;;;;;;;4.72;1.45;;;;;;;24.92;43.80;102010.84;5169148;28;20178;-67
2022/08/28 11:27:32;;;;;;;4.45;1.50;;;;;;;25.37;46.26;102014.84;5273480;28;20516;-68
2022/08/28 11:30:09;;;;;;;3.15;1.52;;;;;;;25.27;45.20;102021.59;5274587;28;20021;-67
2022/08/28 11:32:50;;;;;;;4.30;1.42;;;;;;;25.33;44.13;102018.94;5272850;28;20028;-68
2022/08/28 11:35:45;;;;;;;5.82;1.70;;;;;;;25.13;44.32;102026.91;5270787;28;20032;-67
2022/08/28 11:38:42;;;;;;;4.53;1.67;;;;;;;24.98;44.60;102018.94;5260206;28;20067;-67
2022/08/28 11:41:23;;;;;;;3.78;1.42;;;;;;;24.64;44.74;102018.91;5271975;28;20071;-67
2022/08/28 11:44:09;;;;;;;4.97;1.50;;;;;;;24.59;46.92;102019.50;5272612;28;20027;-67
2022/08/28 11:46:42;;;;;;;6.30;1.85;;;;;;;24.18;45.07;102022.81;5272554;28;20021;-67
2022/08/28 11:49:23;;;;;;;4.50;1.60;;;;;;;24.42;46.92;102023.47;5268370;28;20055;-67
2022/08/28 11:52:03;;;;;;;3.00;1.50;;;;;;;24.82;47.97;102016.56;5268651;28;20035;-67
2022/08/28 11:54:59;;;;;;;3.22;1.50;;;;;;;24.85;45.85;102016.19;5273968;28;20028;-67
2022/08/28 11:57:50;;;;;;;4.22;1.65;;;;;;;24.90;45.89;102019.09;5271644;28;20110;-67
2022/08/28 12:00:50;;;;;;;3.45;1.50;;;;;;;24.80;44.15;102023.16;5270344;28;20037;-67
2022/08/28 12:03:35;;;;;;;4.05;1.67;;;;;;;24.91;44.15;102018.06;5272062;28;20025;-67
2022/08/28 12:06:07;;;;;;;3.85;1.52;;;;;;;25.17;43.97;102014.75;5271288;28;20024;-66
2022/08/28 12:08:50;;;;;;;4.32;1.40;;;;;;;25.60;44.12;102011.00;5273775;28;20017;-66